Terminal Aerodrome Forecast
Issued by NWS Flagstaff, AZ

Home | Current Version | Previous Version | Text Only | Print | Product List | Glossary On
Versions: 1 2 3 4 5 6 7 8 9 10 11 12 13 14 15
000
FTUS45 KFGZ 282300
TAFINW
TAF
KINW 282330Z 0100/0124 21028G38KT P6SM SCT035 SCT045
     FM010200 21015G22KT P6SM SCT035 BKN050
     FM010500 22012KT P6SM SCT030 OVC045
     FM011600 20013KT P6SM VCSH SCT020 OVC035
     FM011900 21015G28KT P6SM VCSH SCT035 BKN045=

USA.gov is the U.S. government's official web portal to all federal, state and local government web resources and services.